Time;durP1;ratioP1;P1;durP2;ratioP2;P2;SDS_P1;SDS_P2;PMS_P1;PMS_P2;Temp;Humidity;BMP_temperature;BMP_pressure;BME280_temperature;BME280_humidity;BME280_pressure;Samples;Min_cycle;Max_cycle;Signal;HPM_P1;HPM_P2
2022/04/21 00:00:36;;;;;;;3.65;3.20;;;;;;;;;;5058846;28;20178;-75
2022/04/21 00:03:02;;;;;;;3.67;2.55;;;;;;;;;;5059224;28;20194;-72
2022/04/21 00:05:28;;;;;;;6.65;2.50;;;;;;;;;;5059196;28;20181;-72
2022/04/21 00:07:54;;;;;;;5.10;2.50;;;;;;;;;;5059231;28;20699;-73
2022/04/21 00:10:21;;;;;;;4.50;3.03;;;;;;;;;;5058986;28;20424;-75
2022/04/21 00:12:47;;;;;;;2.73;2.53;;;;;;;;;;5059122;28;20248;-75
2022/04/21 00:15:13;;;;;;;4.70;2.90;;;;;;;;;;5059047;28;20516;-73
2022/04/21 00:17:40;;;;;;;3.85;2.50;;;;;;;;;;5059138;28;20458;-74
2022/04/21 00:20:06;;;;;;;2.47;2.28;;;;;;;;;;5059093;28;20312;-74
2022/04/21 00:25:16;;;;;;;2.58;2.38;;;;;;;;;;5059295;28;20188;-73
2022/04/21 00:27:44;;;;;;;3.70;2.50;;;;;;;;;;5057656;28;20189;-73
2022/04/21 00:30:11;;;;;;;3.87;2.20;;;;;;;;;;5054983;28;20247;-74
2022/04/21 00:32:38;;;;;;;5.55;2.53;;;;;;;;;;5055662;28;20432;-73
2022/04/21 00:35:04;;;;;;;2.72;2.53;;;;;;;;;;5055840;28;20209;-71
2022/04/21 00:37:30;;;;;;;8.27;3.13;;;;;;;;;;5055836;28;20177;-73
2022/04/21 00:39:56;;;;;;;4.53;2.73;;;;;;;;;;5055783;28;20208;-72
2022/04/21 00:42:23;;;;;;;2.60;2.40;;;;;;;;;;5053995;28;20951;-72
2022/04/21 00:44:50;;;;;;;3.73;2.60;;;;;;;;;;5037744;28;20454;-73
2022/04/21 00:47:16;;;;;;;3.42;2.88;;;;;;;;;;5055475;28;20402;-72
2022/04/21 00:49:43;;;;;;;3.67;2.72;;;;;;;;;;5055334;28;20176;-74
2022/04/21 00:52:09;;;;;;;2.95;2.10;;;;;;;;;;5055070;28;20204;-72
2022/04/21 00:54:35;;;;;;;4.05;3.10;;;;;;;;;;5055286;28;20212;-73
2022/04/21 00:57:02;;;;;;;3.30;2.47;;;;;;;;;;5053889;28;20190;-74
2022/04/21 00:59:28;;;;;;;3.05;2.75;;;;;;;;;;5055249;28;20822;-72
2022/04/21 01:04:39;;;;;;;4.75;2.90;;;;;;;;;;5055604;28;20228;-73
2022/04/21 01:07:08;;;;;;;3.00;2.13;;;;;;;;;;5054979;28;20210;-72
2022/04/21 01:09:35;;;;;;;3.70;2.97;;;;;;;;;;5053679;28;20471;-73
2022/04/21 01:12:01;;;;;;;5.00;2.75;;;;;;;;;;5054732;28;20198;-72
2022/04/21 01:14:27;;;;;;;3.88;2.83;;;;;;;;;;5055049;28;20232;-72
2022/04/21 01:16:53;;;;;;;4.68;2.65;;;;;;;;;;5053677;28;20227;-73
2022/04/21 01:19:19;;;;;;;7.70;2.70;;;;;;;;;;5054923;28;20538;-72
2022/04/21 01:21:46;;;;;;;3.87;2.60;;;;;;;;;;5054578;28;20190;-75
2022/04/21 01:24:12;;;;;;;3.08;2.78;;;;;;;;;;5054837;28;20411;-73
2022/04/21 01:26:38;;;;;;;3.83;2.40;;;;;;;;;;5055011;28;20530;-73
2022/04/21 01:29:05;;;;;;;3.53;3.03;;;;;;;;;;5054815;28;20532;-73
2022/04/21 01:31:31;;;;;;;4.50;3.00;;;;;;;;;;5052910;28;20952;-73
2022/04/21 01:33:58;;;;;;;3.45;2.80;;;;;;;;;;5054818;28;20187;-74
2022/04/21 01:36:24;;;;;;;3.58;3.03;;;;;;;;;;5054606;28;20198;-72
2022/04/21 01:41:35;;;;;;;4.45;3.58;;;;;;;;;;5053198;28;20224;-72
2022/04/21 01:44:02;;;;;;;3.30;2.90;;;;;;;;;;5054743;28;20177;-73
2022/04/21 01:46:28;;;;;;;4.70;2.80;;;;;;;;;;5054579;28;20184;-74
2022/04/21 01:48:54;;;;;;;5.18;3.70;;;;;;;;;;5054543;28;20205;-74
2022/04/21 01:51:20;;;;;;;3.03;2.70;;;;;;;;;;5053939;28;20612;-75
2022/04/21 01:53:46;;;;;;;3.07;2.77;;;;;;;;;;5054302;28;20412;-73
2022/04/21 01:56:11;;;;;;;4.23;3.40;;;;;;;;;;5052909;28;20468;-74
2022/04/21 01:58:38;;;;;;;5.00;3.10;;;;;;;;;;5054209;28;20423;-72
2022/04/21 02:01:04;;;;;;;3.20;2.55;;;;;;;;;;5053749;28;20410;-74
2022/04/21 02:03:32;;;;;;;5.50;3.45;;;;;;;;;;5053959;28;20541;-73
2022/04/21 02:05:58;;;;;;;4.95;3.40;;;;;;;;;;5054032;28;20572;-73
2022/04/21 02:08:24;;;;;;;5.10;3.10;;;;;;;;;;5053797;28;20230;-71
2022/04/21 02:10:50;;;;;;;3.07;2.80;;;;;;;;;;5053751;28;20752;-74
2022/04/21 02:13:16;;;;;;;4.10;3.53;;;;;;;;;;5053843;28;20432;-73
2022/04/21 02:15:42;;;;;;;4.50;2.90;;;;;;;;;;5054135;28;20209;-74
2022/04/21 02:18:08;;;;;;;8.47;3.67;;;;;;;;;;5053947;28;20498;-74
2022/04/21 02:20:34;;;;;;;4.23;3.13;;;;;;;;;;5053437;28;20412;-73
2022/04/21 02:23:00;;;;;;;4.57;3.40;;;;;;;;;;5052669;28;20913;-75
2022/04/21 02:25:26;;;;;;;7.23;3.83;;;;;;;;;;5052440;28;20227;-74
2022/04/21 02:27:51;;;;;;;4.67;2.70;;;;;;;;;;5052308;28;20793;-72
2022/04/21 02:30:18;;;;;;;4.07;3.40;;;;;;;;;;5053352;28;20422;-74
2022/04/21 02:32:45;;;;;;;5.82;3.45;;;;;;;;;;5052255;28;20527;-73
2022/04/21 02:35:11;;;;;;;7.03;3.33;;;;;;;;;;5053582;28;20214;-72
2022/04/21 02:37:37;;;;;;;6.20;3.53;;;;;;;;;;5053464;28;20174;-72
2022/04/21 02:40:04;;;;;;;4.35;3.20;;;;;;;;;;5053481;28;20512;-76
2022/04/21 02:42:30;;;;;;;4.68;3.25;;;;;;;;;;5053256;28;20610;-74
2022/04/21 02:44:56;;;;;;;6.07;3.63;;;;;;;;;;5053555;28;20264;-75
2022/04/21 02:47:22;;;;;;;5.15;3.80;;;;;;;;;;5053453;28;20576;-72
2022/04/21 02:49:49;;;;;;;8.65;4.68;;;;;;;;;;5053248;28;20628;-73
2022/04/21 02:52:15;;;;;;;3.58;3.28;;;;;;;;;;5052515;28;20570;-74
2022/04/21 02:57:27;;;;;;;4.55;4.15;;;;;;;;;;5053551;28;20611;-74
2022/04/21 03:00:01;;;;;;;5.57;3.78;;;;;;;;;;5053133;28;20175;-72
2022/04/21 03:02:27;;;;;;;5.18;3.58;;;;;;;;;;5052805;28;20214;-72
2022/04/21 03:04:54;;;;;;;6.18;4.18;;;;;;;;;;5053182;28;20598;-72
2022/04/21 03:07:21;;;;;;;4.35;3.53;;;;;;;;;;5051772;28;20180;-73
2022/04/21 03:09:47;;;;;;;5.00;3.58;;;;;;;;;;5052895;28;20233;-74
2022/04/21 03:12:13;;;;;;;4.30;3.40;;;;;;;;;;5052424;28;20203;-72
2022/04/21 03:14:40;;;;;;;6.70;3.83;;;;;;;;;;5051672;28;20464;-73
2022/04/21 03:17:07;;;;;;;7.45;3.67;;;;;;;;;;5053112;28;20410;-75
2022/04/21 03:19:33;;;;;;;4.65;3.83;;;;;;;;;;5053080;28;20176;-72
2022/04/21 03:24:44;;;;;;;4.00;3.33;;;;;;;;;;5053667;28;20252;-73
2022/04/21 03:27:10;;;;;;;7.20;4.10;;;;;;;;;;5051673;28;20179;-74
2022/04/21 03:29:39;;;;;;;4.43;3.50;;;;;;;;;;5052932;28;20198;-74
2022/04/21 03:32:09;;;;;;;3.85;3.35;;;;;;;;;;5052236;28;20209;-75
2022/04/21 03:34:35;;;;;;;4.40;4.00;;;;;;;;;;5053037;28;20293;-74
2022/04/21 03:37:02;;;;;;;4.22;3.78;;;;;;;;;;5051500;28;20180;-74
2022/04/21 03:39:28;;;;;;;6.13;4.57;;;;;;;;;;5035188;28;20621;-74
2022/04/21 03:41:54;;;;;;;4.40;3.97;;;;;;;;;;5052373;28;20224;-75
2022/04/21 03:44:23;;;;;;;4.10;3.70;;;;;;;;;;5052613;28;20175;-74
2022/04/21 03:46:49;;;;;;;6.43;3.92;;;;;;;;;;5052868;28;20758;-72
2022/04/21 03:49:15;;;;;;;4.40;3.53;;;;;;;;;;5052874;28;20575;-74
2022/04/21 03:51:41;;;;;;;5.57;4.25;;;;;;;;;;5052328;28;20196;-75
2022/04/21 03:54:07;;;;;;;6.63;4.20;;;;;;;;;;5052796;28;20162;-74
2022/04/21 03:56:33;;;;;;;3.60;3.30;;;;;;;;;;5052409;28;20294;-74
2022/04/21 03:59:00;;;;;;;6.47;4.23;;;;;;;;;;5052702;28;20264;-73
2022/04/21 04:01:26;;;;;;;7.22;4.28;;;;;;;;;;5052284;28;20422;-72
2022/04/21 04:03:52;;;;;;;7.33;4.87;;;;;;;;;;5053659;28;20584;-73
2022/04/21 04:11:50;;;;;;;8.65;4.55;;;;;;;;;;5055969;28;20210;-74
2022/04/21 04:14:15;;;;;;;8.15;4.40;;;;;;;;;;5054938;28;20173;-72
2022/04/21 04:16:41;;;;;;;3.87;3.57;;;;;;;;;;5056166;28;20229;-72
2022/04/21 04:19:08;;;;;;;6.37;4.20;;;;;;;;;;5054883;28;20449;-73
2022/04/21 04:21:38;;;;;;;5.88;4.05;;;;;;;;;;5055519;28;20428;-74
2022/04/21 04:24:04;;;;;;;5.57;4.30;;;;;;;;;;5054759;28;20175;-72
2022/04/21 04:26:32;;;;;;;9.95;3.85;;;;;;;;;;5055967;28;20654;-74
2022/04/21 04:28:58;;;;;;;5.07;4.10;;;;;;;;;;5056032;28;20593;-73
2022/04/21 04:31:24;;;;;;;5.18;4.25;;;;;;;;;;5055458;28;20203;-72
2022/04/21 04:33:50;;;;;;;6.00;4.27;;;;;;;;;;5054794;28;20190;-72
2022/04/21 04:36:16;;;;;;;9.87;4.57;;;;;;;;;;5055791;28;20469;-73
2022/04/21 04:38:43;;;;;;;4.70;4.20;;;;;;;;;;5055910;28;20413;-73
2022/04/21 04:43:54;;;;;;;6.75;4.40;;;;;;;;;;5056035;28;20745;-75
2022/04/21 04:46:35;;;;;;;6.07;4.67;;;;;;;;;;5054401;28;20191;-73
2022/04/21 04:49:11;;;;;;;5.97;4.88;;;;;;;;;;5055733;28;21290;-73
2022/04/21 04:51:40;;;;;;;7.13;5.03;;;;;;;;;;5055156;28;20198;-73
2022/04/21 04:54:06;;;;;;;5.85;4.82;;;;;;;;;;5055460;28;20652;-73
2022/04/21 04:56:33;;;;;;;5.20;4.70;;;;;;;;;;5055216;28;20296;-74
2022/04/21 04:59:00;;;;;;;6.78;5.25;;;;;;;;;;5055262;28;20886;-73
2022/04/21 05:01:30;;;;;;;5.35;4.85;;;;;;;;;;5054877;28;20189;-75
2022/04/21 05:04:06;;;;;;;5.07;4.57;;;;;;;;;;5055297;28;20172;-73
2022/04/21 05:06:47;;;;;;;5.57;5.03;;;;;;;;;;5055164;28;20185;-73
2022/04/21 05:09:17;;;;;;;6.53;5.00;;;;;;;;;;5054940;28;20187;-73
2022/04/21 05:11:44;;;;;;;4.78;4.05;;;;;;;;;;5053347;28;20237;-73
2022/04/21 05:14:10;;;;;;;6.18;4.50;;;;;;;;;;5054807;28;20597;-73
2022/04/21 05:16:39;;;;;;;6.03;4.50;;;;;;;;;;5053746;28;20621;-74
2022/04/21 05:19:07;;;;;;;4.93;4.43;;;;;;;;;;5054826;28;20178;-73
2022/04/21 05:21:34;;;;;;;5.63;4.80;;;;;;;;;;5054594;28;20186;-74
2022/04/21 05:24:00;;;;;;;5.13;4.50;;;;;;;;;;5054932;28;20294;-73
2022/04/21 05:26:27;;;;;;;6.63;5.35;;;;;;;;;;5054913;28;20549;-73
2022/04/21 05:28:53;;;;;;;10.57;5.43;;;;;;;;;;5055090;28;20259;-72
2022/04/21 05:31:19;;;;;;;5.10;4.60;;;;;;;;;;5054428;28;20550;-74
2022/04/21 05:33:45;;;;;;;6.30;5.65;;;;;;;;;;5054732;28;20179;-72
2022/04/21 05:36:12;;;;;;;12.60;5.45;;;;;;;;;;5054711;28;20646;-74
2022/04/21 05:38:38;;;;;;;7.47;5.80;;;;;;;;;;5055076;28;20638;-74
2022/04/21 05:41:04;;;;;;;7.30;5.53;;;;;;;;;;5054144;28;20194;-74
2022/04/21 05:43:46;;;;;;;8.60;5.70;;;;;;;;;;5054614;28;20239;-73
2022/04/21 05:46:13;;;;;;;6.18;5.38;;;;;;;;;;5054402;28;20177;-74
2022/04/21 05:48:40;;;;;;;8.45;5.43;;;;;;;;;;5054407;28;20197;-75
2022/04/21 05:51:07;;;;;;;6.93;5.95;;;;;;;;;;5053868;28;20181;-75
2022/04/21 05:53:36;;;;;;;6.85;5.50;;;;;;;;;;5054282;28;20177;-72
2022/04/21 05:56:02;;;;;;;21.50;5.85;;;;;;;;;;5054297;28;20240;-74
2022/04/21 05:58:28;;;;;;;6.40;5.70;;;;;;;;;;5054229;28;20188;-73
2022/04/21 06:00:54;;;;;;;6.47;5.33;;;;;;;;;;5053882;28;20652;-72
2022/04/21 06:03:22;;;;;;;7.03;5.72;;;;;;;;;;5053957;28;20408;-74
2022/04/21 06:05:48;;;;;;;7.18;5.22;;;;;;;;;;5054112;28;20298;-73
2022/04/21 06:08:14;;;;;;;7.32;5.75;;;;;;;;;;5053970;28;20214;-73
2022/04/21 06:10:40;;;;;;;16.17;5.27;;;;;;;;;;5053635;28;20657;-75
2022/04/21 06:13:06;;;;;;;5.47;4.97;;;;;;;;;;5053872;28;20430;-75
2022/04/21 06:15:32;;;;;;;7.47;5.50;;;;;;;;;;5053642;28;20242;-73
2022/04/21 06:17:59;;;;;;;11.45;4.93;;;;;;;;;;5054019;28;20176;-73
2022/04/21 06:20:26;;;;;;;14.25;4.72;;;;;;;;;;5053573;28;20180;-73
2022/04/21 06:22:52;;;;;;;5.88;5.18;;;;;;;;;;5052508;28;20682;-73
2022/04/21 06:25:18;;;;;;;6.70;5.15;;;;;;;;;;5054027;28;20180;-74
2022/04/21 06:27:44;;;;;;;8.67;5.50;;;;;;;;;;5053082;28;20654;-73
2022/04/21 06:30:11;;;;;;;6.05;5.05;;;;;;;;;;5053450;28;20416;-74
2022/04/21 06:32:37;;;;;;;7.43;5.15;;;;;;;;;;5053611;28;20278;-73
2022/04/21 06:35:03;;;;;;;5.57;5.07;;;;;;;;;;5053590;28;20351;-75
2022/04/21 06:37:30;;;;;;;5.72;4.70;;;;;;;;;;5053548;28;20494;-73
2022/04/21 06:39:56;;;;;;;7.07;5.30;;;;;;;;;;5053522;28;20181;-73
2022/04/21 06:42:21;;;;;;;7.65;5.30;;;;;;;;;;5053182;28;20204;-73
2022/04/21 06:50:17;;;;;;;13.50;11.52;;;;;;;;;;5053537;28;20195;-75
2022/04/21 06:52:43;;;;;;;5.20;4.70;;;;;;;;;;5052223;28;20190;-73
2022/04/21 06:55:09;;;;;;;5.60;4.18;;;;;;;;;;5053274;28;20197;-73
2022/04/21 06:57:35;;;;;;;5.43;4.00;;;;;;;;;;5053207;28;20202;-74
2022/04/21 07:00:01;;;;;;;4.90;3.37;;;;;;;;;;5053148;28;20595;-73
2022/04/21 07:02:37;;;;;;;3.87;3.23;;;;;;;;;;5052785;28;20547;-73
2022/04/21 07:05:08;;;;;;;5.43;3.50;;;;;;;;;;5051902;28;20391;-73
2022/04/21 07:07:34;;;;;;;3.28;2.80;;;;;;;;;;5052973;28;20516;-73
2022/04/21 07:10:03;;;;;;;4.63;3.53;;;;;;;;;;5052855;28;20197;-74
2022/04/21 07:12:32;;;;;;;3.60;3.30;;;;;;;;;;5052677;28;20873;-74
2022/04/21 07:14:59;;;;;;;7.67;3.00;;;;;;;;;;5052951;28;20542;-74
2022/04/21 07:17:25;;;;;;;4.70;3.07;;;;;;;;;;5053081;28;20889;-72
2022/04/21 07:19:51;;;;;;;7.53;3.10;;;;;;;;;;5051688;28;20889;-74
2022/04/21 07:22:20;;;;;;;3.90;3.57;;;;;;;;;;5052630;28;20432;-73
2022/04/21 07:24:46;;;;;;;9.03;3.53;;;;;;;;;;5053070;28;20415;-74
2022/04/21 07:27:12;;;;;;;9.83;4.90;;;;;;;;;;5053112;28;20783;-74
2022/04/21 07:29:38;;;;;;;3.83;3.20;;;;;;;;;;5052855;28;20452;-73
2022/04/21 07:32:05;;;;;;;4.47;3.43;;;;;;;;;;5052404;28;20546;-74
2022/04/21 07:34:31;;;;;;;7.40;3.60;;;;;;;;;;5052913;28;20415;-73
2022/04/21 07:36:57;;;;;;;8.70;3.80;;;;;;;;;;5052971;28;20499;-73
2022/04/21 07:39:23;;;;;;;4.30;3.60;;;;;;;;;;5056725;28;20505;-73
2022/04/21 07:41:49;;;;;;;6.97;4.03;;;;;;;;;;5056586;28;20420;-73
2022/04/21 07:44:15;;;;;;;7.07;4.20;;;;;;;;;;5056824;28;20437;-73
2022/04/21 07:46:41;;;;;;;3.67;3.37;;;;;;;;;;5056843;28;20434;-74
2022/04/21 07:51:51;;;;;;;5.43;4.20;;;;;;;;;;5056604;28;20423;-73
2022/04/21 07:54:17;;;;;;;5.77;4.03;;;;;;;;;;5056582;28;20775;-73
2022/04/21 07:56:43;;;;;;;7.57;3.97;;;;;;;;;;5056439;28;20478;-72
2022/04/21 07:59:09;;;;;;;6.03;4.30;;;;;;;;;;5056661;28;20470;-74
2022/04/21 08:01:35;;;;;;;4.70;3.40;;;;;;;;;;5056189;28;20403;-72
2022/04/21 08:04:04;;;;;;;5.50;3.30;;;;;;;;;;5056427;28;20772;-72
2022/04/21 08:06:30;;;;;;;5.57;3.93;;;;;;;;;;5056234;28;20416;-73
2022/04/21 08:08:56;;;;;;;5.47;3.77;;;;;;;;;;5056243;28;20917;-73
2022/04/21 08:11:22;;;;;;;5.50;3.60;;;;;;;;;;5054613;28;20533;-73
2022/04/21 08:13:48;;;;;;;6.40;3.40;;;;;;;;;;5056259;28;20507;-74
2022/04/21 08:16:15;;;;;;;6.70;3.77;;;;;;;;;;5056016;28;20456;-74
2022/04/21 08:18:41;;;;;;;4.73;3.30;;;;;;;;;;5055906;28;20380;-74
2022/04/21 08:21:07;;;;;;;6.23;3.33;;;;;;;;;;5055586;28;20376;-73
2022/04/21 08:23:36;;;;;;;7.60;3.70;;;;;;;;;;5056148;28;20408;-74
2022/04/21 08:34:24;;;;;;;3.83;3.20;;;;;;;;;;5055973;28;20403;-75
2022/04/21 08:36:51;;;;;;;3.23;2.70;;;;;;;;;;5056004;28;20409;-73
2022/04/21 08:39:17;;;;;;;3.87;2.53;;;;;;;;;;5055957;28;20408;-74
2022/04/21 08:41:49;;;;;;;2.40;2.20;;;;;;;;;;5055501;28;20455;-73
2022/04/21 08:44:21;;;;;;;3.80;2.23;;;;;;;;;;5054457;28;20395;-73
2022/04/21 08:46:50;;;;;;;3.43;2.43;;;;;;;;;;5054475;28;20420;-73
2022/04/21 08:49:18;;;;;;;3.77;2.47;;;;;;;;;;5055229;28;20417;-72
2022/04/21 08:51:44;;;;;;;3.87;2.60;;;;;;;;;;5055361;28;20486;-74
2022/04/21 08:54:10;;;;;;;4.33;2.40;;;;;;;;;;5055545;28;20889;-74
2022/04/21 08:56:37;;;;;;;3.33;2.40;;;;;;;;;;5054083;28;20483;-73
2022/04/21 08:59:03;;;;;;;3.17;2.70;;;;;;;;;;5055535;28;20404;-74
2022/04/21 09:01:29;;;;;;;3.30;3.00;;;;;;;;;;5055096;28;20921;-75
2022/04/21 09:03:55;;;;;;;2.93;2.50;;;;;;;;;;5055462;28;20510;-74
2022/04/21 09:06:22;;;;;;;3.87;2.57;;;;;;;;;;5055326;28;20555;-75
2022/04/21 09:09:08;;;;;;;4.23;2.73;;;;;;;;;;5054984;28;20912;-72
2022/04/21 09:11:34;;;;;;;4.53;2.30;;;;;;;;;;5054646;28;20658;-73
2022/04/21 09:14:01;;;;;;;4.40;2.33;;;;;;;;;;5055221;28;20462;-73
2022/04/21 09:16:33;;;;;;;4.13;2.67;;;;;;;;;;5054891;28;20478;-73
2022/04/21 09:19:02;;;;;;;3.00;2.70;;;;;;;;;;5054876;28;20412;-72
2022/04/21 09:21:35;;;;;;;5.20;3.43;;;;;;;;;;5054437;28;20428;-74
2022/04/21 09:24:01;;;;;;;3.73;2.50;;;;;;;;;;5055168;28;20440;-74
2022/04/21 09:26:27;;;;;;;4.00;3.27;;;;;;;;;;5054973;28;20911;-72
2022/04/21 09:28:57;;;;;;;2.73;2.47;;;;;;;;;;5054730;28;20417;-72
2022/04/21 09:31:25;;;;;;;2.30;2.10;;;;;;;;;;5054431;28;20424;-74
2022/04/21 09:33:51;;;;;;;1.70;1.60;;;;;;;;;;5053475;28;20893;-74
2022/04/21 09:36:18;;;;;;;4.10;2.33;;;;;;;;;;5054706;28;20864;-73
2022/04/21 09:38:57;;;;;;;2.70;2.13;;;;;;;;;;5054853;28;20415;-73
2022/04/21 09:41:28;;;;;;;3.53;2.40;;;;;;;;;;5054467;28;20829;-73
2022/04/21 09:43:55;;;;;;;4.07;1.97;;;;;;;;;;5054856;28;20404;-72
2022/04/21 09:46:22;;;;;;;3.67;2.53;;;;;;;;;;5054729;28;20412;-73
2022/04/21 09:48:57;;;;;;;3.90;2.10;;;;;;;;;;5054619;28;20766;-72
2022/04/21 09:51:28;;;;;;;4.37;2.30;;;;;;;;;;5054027;28;20434;-74
2022/04/21 09:53:58;;;;;;;2.40;1.60;;;;;;;;;;5054669;28;20423;-73
2022/04/21 09:56:31;;;;;;;2.30;1.23;;;;;;;;;;5054278;28;20456;-72
2022/04/21 09:58:57;;;;;;;2.90;1.63;;;;;;;;;;5054260;28;20504;-74
2022/04/21 10:01:23;;;;;;;2.53;1.83;;;;;;;;;;5052809;28;20432;-74
2022/04/21 10:14:17;;;;;;;1.50;1.10;;;;;;;;;;5006288;28;20466;-72
2022/04/21 10:16:43;;;;;;;1.30;1.20;;;;;;;;;;5007121;28;20472;-73
2022/04/21 10:19:10;;;;;;;1.70;1.20;;;;;;;;;;5008313;28;20443;-74
2022/04/21 10:21:39;;;;;;;1.17;0.93;;;;;;;;;;5013879;28;20434;-73
2022/04/21 10:24:05;;;;;;;2.03;1.83;;;;;;;;;;5014761;28;20454;-73
2022/04/21 10:26:44;;;;;;;4.40;1.87;;;;;;;;;;5014286;28;20411;-71
2022/04/21 10:29:11;;;;;;;2.57;1.30;;;;;;;;;;5013989;28;20464;-71
2022/04/21 10:31:45;;;;;;;1.63;1.50;;;;;;;;;;5013718;28;20466;-73
2022/04/21 10:34:11;;;;;;;3.27;1.33;;;;;;;;;;5013988;28;20405;-73
2022/04/21 10:36:47;;;;;;;2.63;1.23;;;;;;;;;;5013926;28;20508;-73
2022/04/21 10:39:19;;;;;;;1.57;1.40;;;;;;;;;;5014295;28;20444;-73
2022/04/21 10:41:46;;;;;;;1.30;1.03;;;;;;;;;;5013521;28;20466;-72
2022/04/21 10:44:15;;;;;;;1.70;1.50;;;;;;;;;;5014038;28;20399;-73
2022/04/21 10:46:42;;;;;;;1.63;1.33;;;;;;;;;;5013876;28;20420;-73
2022/04/21 10:49:09;;;;;;;1.80;1.50;;;;;;;;;;5013760;28;20417;-73
2022/04/21 10:57:17;;;;;;;3.33;1.60;;;;;;;;;;5013983;28;20568;-72
2022/04/21 11:00:08;;;;;;;3.10;1.33;;;;;;;;;;5013467;28;20941;-72
2022/04/21 11:02:44;;;;;;;2.10;1.50;;;;;;;;;;5013686;28;20795;-73
2022/04/21 11:05:22;;;;;;;2.17;1.23;;;;;;;;;;5013532;28;20410;-72
2022/04/21 11:07:55;;;;;;;2.30;1.60;;;;;;;;;;5013494;28;20497;-73
2022/04/21 11:10:41;;;;;;;2.63;1.50;;;;;;;;;;5013176;28;20407;-72
2022/04/21 11:13:08;;;;;;;4.13;1.37;;;;;;;;;;5012996;28;20464;-72
2022/04/21 11:15:39;;;;;;;3.43;1.50;;;;;;;;;;5013275;28;20462;-75
2022/04/21 11:18:10;;;;;;;3.20;1.57;;;;;;;;;;5012099;28;20903;-73
2022/04/21 11:20:37;;;;;;;2.30;1.53;;;;;;;;;;5013079;28;20500;-74
2022/04/21 11:23:03;;;;;;;1.83;1.57;;;;;;;;;;5011839;28;20942;-73
2022/04/21 11:25:33;;;;;;;2.80;1.70;;;;;;;;;;5012969;28;20471;-71
2022/04/21 11:27:59;;;;;;;2.20;1.60;;;;;;;;;;5013177;28;20505;-72
2022/04/21 11:30:25;;;;;;;3.73;2.50;;;;;;;;;;5012957;28;20749;-72
2022/04/21 11:32:52;;;;;;;3.40;2.00;;;;;;;;;;5013363;28;20489;-71
2022/04/21 11:35:18;;;;;;;2.90;1.90;;;;;;;;;;5013348;28;20942;-73
2022/04/21 11:37:48;;;;;;;2.90;2.17;;;;;;;;;;5013224;28;20421;-72
2022/04/21 11:40:20;;;;;;;5.03;2.13;;;;;;;;;;5012547;28;20477;-72
2022/04/21 11:42:47;;;;;;;3.93;2.20;;;;;;;;;;5012925;28;20797;-72
2022/04/21 11:45:17;;;;;;;4.93;2.40;;;;;;;;;;5013123;28;20421;-73
2022/04/21 11:47:43;;;;;;;4.70;2.10;;;;;;;;;;5013269;28;20494;-72
2022/04/21 11:50:10;;;;;;;3.93;2.00;;;;;;;;;;5012797;28;20516;-74
2022/04/21 11:52:36;;;;;;;6.20;2.20;;;;;;;;;;5011861;28;20438;-71
2022/04/21 11:55:06;;;;;;;2.33;2.13;;;;;;;;;;5013079;28;20820;-72
2022/04/21 11:57:41;;;;;;;5.53;2.10;;;;;;;;;;5013377;28;20414;-71
2022/04/21 12:00:08;;;;;;;5.57;2.53;;;;;;;;;;5012769;28;20899;-73
2022/04/21 12:08:06;;;;;;;4.93;2.17;;;;;;;;;;5013105;28;20417;-72
2022/04/21 12:10:32;;;;;;;3.00;2.33;;;;;;;;;;5012603;28;20564;-72
2022/04/21 12:12:58;;;;;;;2.40;2.20;;;;;;;;;;5012668;28;20575;-74
2022/04/21 12:15:28;;;;;;;2.67;2.40;;;;;;;;;;5012773;28;20465;-72
2022/04/21 12:17:59;;;;;;;4.90;2.40;;;;;;;;;;5012729;28;20414;-73
2022/04/21 12:20:25;;;;;;;3.63;2.40;;;;;;;;;;5012422;28;20406;-73
2022/04/21 12:22:51;;;;;;;3.73;2.20;;;;;;;;;;5012619;28;20488;-72
2022/04/21 12:25:17;;;;;;;6.30;2.40;;;;;;;;;;5014607;28;20844;-72
2022/04/21 12:27:44;;;;;;;4.50;2.30;;;;;;;;;;5015082;28;20425;-72
2022/04/21 12:30:14;;;;;;;2.20;1.83;;;;;;;;;;5016023;28;20776;-76
2022/04/21 12:32:45;;;;;;;3.47;2.60;;;;;;;;;;5016218;28;20529;-71
2022/04/21 12:35:12;;;;;;;3.73;2.50;;;;;;;;;;5016158;28;20457;-73
2022/04/21 12:37:39;;;;;;;3.80;2.37;;;;;;;;;;5015166;28;20421;-72
2022/04/21 12:40:06;;;;;;;6.73;2.10;;;;;;;;;;5015972;28;20468;-73
2022/04/21 12:42:32;;;;;;;2.43;2.00;;;;;;;;;;5015647;28;20433;-73
2022/04/21 12:44:59;;;;;;;2.90;2.33;;;;;;;;;;5016209;28;20415;-70
2022/04/21 12:47:25;;;;;;;3.63;2.43;;;;;;;;;;5016228;28;20825;-72
2022/04/21 12:49:55;;;;;;;3.67;2.50;;;;;;;;;;5016218;28;20411;-72
2022/04/21 12:52:47;;;;;;;2.60;2.40;;;;;;;;;;5015564;28;20441;-73
2022/04/21 12:55:24;;;;;;;2.83;2.53;;;;;;;;;;5010962;28;20469;-71
2022/04/21 12:57:59;;;;;;;4.70;2.70;;;;;;;;;;5015729;28;20414;-71
2022/04/21 13:00:25;;;;;;;3.77;2.60;;;;;;;;;;5015256;28;20957;-71
2022/04/21 13:02:51;;;;;;;4.70;2.30;;;;;;;;;;5015463;28;20442;-72
2022/04/21 13:05:17;;;;;;;4.33;2.73;;;;;;;;;;5015489;28;20777;-73
2022/04/21 13:07:42;;;;;;;3.70;2.50;;;;;;;;;;5014206;28;20454;-70
2022/04/21 13:10:08;;;;;;;3.20;2.70;;;;;;;;;;5015528;28;20958;-71
2022/04/21 13:12:34;;;;;;;3.80;2.80;;;;;;;;;;5015159;28;20453;-72
2022/04/21 13:15:01;;;;;;;4.87;2.77;;;;;;;;;;5014217;28;20997;-71
2022/04/21 13:17:27;;;;;;;5.13;3.10;;;;;;;;;;5015433;28;20406;-71
2022/04/21 13:19:53;;;;;;;4.73;2.50;;;;;;;;;;5015512;28;20398;-74
2022/04/21 13:22:19;;;;;;;3.40;2.50;;;;;;;;;;5014775;28;20521;-72
2022/04/21 13:24:45;;;;;;;3.80;2.57;;;;;;;;;;5015087;28;20421;-73
2022/04/21 13:27:11;;;;;;;3.27;2.33;;;;;;;;;;5015200;28;20446;-72
2022/04/21 13:29:37;;;;;;;3.80;2.90;;;;;;;;;;5015184;28;20402;-71
2022/04/21 13:35:01;;;;;;;4.17;2.93;;;;;;;;;;4971252;28;20458;-74
2022/04/21 13:37:28;;;;;;;2.70;2.50;;;;;;;;;;5013825;28;20438;-72
2022/04/21 13:39:54;;;;;;;6.00;3.00;;;;;;;;;;5014991;28;20406;-72
2022/04/21 13:42:19;;;;;;;4.13;2.77;;;;;;;;;;5014728;28;20430;-73
2022/04/21 13:44:45;;;;;;;4.10;2.90;;;;;;;;;;5014850;28;20819;-74
2022/04/21 13:47:11;;;;;;;5.97;2.93;;;;;;;;;;5014925;28;20407;-74
2022/04/21 13:49:38;;;;;;;2.50;2.13;;;;;;;;;;5014836;28;20497;-72
2022/04/21 13:52:04;;;;;;;5.77;3.47;;;;;;;;;;5014430;28;20427;-72
2022/04/21 13:54:30;;;;;;;6.57;2.93;;;;;;;;;;5014681;28;20403;-73
2022/04/21 13:56:56;;;;;;;5.70;2.77;;;;;;;;;;5014314;28;20958;-72
2022/04/21 13:59:22;;;;;;;6.43;2.70;;;;;;;;;;5014791;28;20890;-71
2022/04/21 14:01:49;;;;;;;3.97;3.03;;;;;;;;;;5014237;28;20519;-74
2022/04/21 14:04:14;;;;;;;3.67;3.20;;;;;;;;;;5014745;28;20409;-73
2022/04/21 14:06:40;;;;;;;3.33;3.00;;;;;;;;;;5014545;28;20410;-72
2022/04/21 14:09:07;;;;;;;6.37;2.90;;;;;;;;;;5014120;28;20410;-73
2022/04/21 14:11:34;;;;;;;5.80;2.90;;;;;;;;;;5014336;28;20449;-72
2022/04/21 14:14:00;;;;;;;5.60;2.37;;;;;;;;;;5014364;28;20448;-73
2022/04/21 14:16:26;;;;;;;3.73;2.70;;;;;;;;;;5014223;28;21046;-71
2022/04/21 14:18:52;;;;;;;4.30;2.40;;;;;;;;;;5014089;28;20484;-75
2022/04/21 14:21:20;;;;;;;4.00;2.10;;;;;;;;;;5013750;28;20441;-70
2022/04/21 14:23:46;;;;;;;3.97;2.97;;;;;;;;;;5014185;28;20504;-71
2022/04/21 14:26:14;;;;;;;2.60;2.40;;;;;;;;;;5013064;28;20420;-73
2022/04/21 14:28:40;;;;;;;7.13;2.20;;;;;;;;;;5014096;28;20425;-72
2022/04/21 14:31:10;;;;;;;2.77;2.40;;;;;;;;;;5013518;28;20988;-72
2022/04/21 14:33:36;;;;;;;3.03;2.70;;;;;;;;;;5014102;28;20437;-72
2022/04/21 14:36:06;;;;;;;3.53;2.10;;;;;;;;;;5012662;28;20461;-71
2022/04/21 14:44:04;;;;;;;3.33;2.03;;;;;;;;;;5014121;28;20421;-70
2022/04/21 14:46:35;;;;;;;5.17;1.97;;;;;;;;;;5013796;28;20403;-71
2022/04/21 14:49:02;;;;;;;3.20;2.13;;;;;;;;;;5013526;28;20460;-73
2022/04/21 14:51:29;;;;;;;4.10;2.50;;;;;;;;;;5013312;28;20441;-71
2022/04/21 14:53:55;;;;;;;3.00;2.17;;;;;;;;;;5013790;28;20445;-70
2022/04/21 14:56:21;;;;;;;3.93;2.33;;;;;;;;;;5013692;28;20462;-72
2022/04/21 14:58:50;;;;;;;5.07;2.93;;;;;;;;;;5013502;28;20748;-70
2022/04/21 15:01:16;;;;;;;2.17;1.90;;;;;;;;;;5012058;28;20434;-72
2022/04/21 15:03:42;;;;;;;7.17;3.07;;;;;;;;;;5013481;28;20864;-72
2022/04/21 15:06:09;;;;;;;4.70;2.17;;;;;;;;;;5013580;28;20418;-72
2022/04/21 15:08:35;;;;;;;3.20;2.77;;;;;;;;;;5013436;28;20496;-70
2022/04/21 15:11:01;;;;;;;4.73;2.80;;;;;;;;;;5013064;28;20552;-70
2022/04/21 15:13:28;;;;;;;5.60;2.43;;;;;;;;;;5013237;28;20441;-70
2022/04/21 15:15:54;;;;;;;5.83;3.03;;;;;;;;;;5013323;28;20519;-72
2022/04/21 15:18:20;;;;;;;5.20;3.10;;;;;;;;;;5013388;28;20402;-73
2022/04/21 15:20:46;;;;;;;4.77;3.40;;;;;;;;;;5012971;28;20426;-73
2022/04/21 15:23:12;;;;;;;6.70;3.70;;;;;;;;;;5013262;28;20433;-72
2022/04/21 15:25:39;;;;;;;4.10;3.37;;;;;;;;;;5012995;28;20484;-71
2022/04/21 15:28:06;;;;;;;6.20;4.17;;;;;;;;;;5013156;28;20410;-74
2022/04/21 15:30:36;;;;;;;5.53;3.80;;;;;;;;;;5012932;28;20892;-74
2022/04/21 15:33:02;;;;;;;4.50;3.73;;;;;;;;;;5013136;28;20441;-71
2022/04/21 15:35:28;;;;;;;4.03;3.63;;;;;;;;;;5013053;28;20453;-71
2022/04/21 15:37:54;;;;;;;5.03;3.50;;;;;;;;;;5012963;28;20922;-74
2022/04/21 15:40:21;;;;;;;4.03;3.53;;;;;;;;;;5012746;28;20410;-73
2022/04/21 15:42:47;;;;;;;7.57;3.60;;;;;;;;;;5012214;28;20536;-73
2022/04/21 15:45:13;;;;;;;4.80;3.30;;;;;;;;;;5013167;28;20429;-71
2022/04/21 15:47:39;;;;;;;5.73;4.07;;;;;;;;;;5013231;28;20414;-71
2022/04/21 15:50:06;;;;;;;7.83;4.30;;;;;;;;;;5013113;28;20453;-72
2022/04/21 15:52:34;;;;;;;4.33;3.93;;;;;;;;;;5012773;28;20413;-72